88119 UUMU-UUMU
Flight info
| Callsign | 88119 |
|---|---|
| Flight time | N/A |
| Altitude | 28000 |
| Route | /RA/M0060 /UUR269/F280 |
| Aircraft | T154/M-S/C |
Departure
| Time | 2026-04-17 17:26 |
|---|---|
| Airport | Chkalovskiy Air Base (UUMU) |
Arrival
| Time | N/A |
|---|---|
| Airport | Chkalovskiy Air Base (UUMU) |
| Time | Latitude | Longitude | Altitude | Speed | Heading |
|---|---|---|---|---|---|
| 2026-04-17 17:26 | 55.89085 | 38.03357 | 788 ft | 167 kts | 132° |
| 2026-04-17 17:26 | 55.88354 | 38.04876 | 1206 ft | 189 kts | 130° |
| 2026-04-17 17:27 | 55.88014 | 38.06968 | 1737 ft | 176 kts | 81° |
| 2026-04-17 17:27 | 55.88721 | 38.08599 | 1981 ft | 175 kts | 21° |
| 2026-04-17 17:27 | 55.89922 | 38.08576 | 2303 ft | 177 kts | 347° |
| 2026-04-17 17:27 | 55.91174 | 38.08083 | 2627 ft | 195 kts | 345° |
| 2026-04-17 17:28 | 55.92569 | 38.07468 | 2492 ft | 218 kts | 345° |
| 2026-04-17 17:28 | 55.94056 | 38.06792 | 2488 ft | 221 kts | 344° |
| 2026-04-17 17:28 | 55.95548 | 38.06116 | 2519 ft | 223 kts | 345° |
| 2026-04-17 17:28 | 55.97080 | 38.05454 | 2594 ft | 226 kts | 346° |
| 2026-04-17 17:29 | 55.98568 | 38.04856 | 2717 ft | 225 kts | 346° |
| 2026-04-17 17:29 | 56.00092 | 38.04257 | 2686 ft | 226 kts | 346° |
| 2026-04-17 17:29 | 56.01609 | 38.03645 | 2640 ft | 221 kts | 346° |
| 2026-04-17 17:29 | 56.03025 | 38.02847 | 2581 ft | 210 kts | 324° |
| 2026-04-17 17:30 | 56.04059 | 38.00956 | 2507 ft | 210 kts | 308° |
| 2026-04-17 17:30 | 56.04952 | 37.98907 | 2503 ft | 228 kts | 298° |
| 2026-04-17 17:30 | 56.05249 | 37.96252 | 2585 ft | 210 kts | 255° |
| 2026-04-17 17:30 | 56.04504 | 37.94247 | 2543 ft | 196 kts | 219° |
| 2026-04-17 17:31 | 56.03482 | 37.92824 | 2531 ft | 168 kts | 217° |
| 2026-04-17 17:31 | 56.02625 | 37.91677 | 2637 ft | 157 kts | 217° |
| 2026-04-17 17:31 | 56.01827 | 37.90617 | 2645 ft | 153 kts | 216° |
| 2026-04-17 17:31 | 56.01002 | 37.89563 | 2638 ft | 156 kts | 217° |